PWSweather.com
Personal Weather Stations
Station Observations
KMAMEDFI2
Medfield, MA 02052

Medfield, MA 02052

Lat: 42.1900822, Lon: -71.3296889

Elevation: 138

Station Type: Rainwise WS MK-III

http://www.medfieldweather.com

High Low Average
Temperature 64.4°F18.0°C 34.2°F1.2°C 47.8°F8.8°C
Dew Point 50.2°F10.1°C 33.0°F0.6°C 41.0°F5.0°C
Winds 12.7 mph 20.4 kmh Calm Calm 2.0 mph WSW3.2 kmh WSW
Wind Gusts 17.3 mph27.8 kmh -- 3.0 mph4.8 kmh
Humidity 97% 49% 80%
Pressure 30.26 in1024.7 mb 30.15 in1021.0 mb -
Precipitation 0.14 in3.6 mm - -
Hour Temp Dew Point Humidity Winds Wind Gusts Pressure Precip Precip Rate Daily Precip Total
12:00 AM 34.4°F1.3°C 33.1°F0.6°C 95% 1.2 mph WSW1.9 kmh WSW 1.2 mph1.9 kmh 30.29 in1025.7 mb - 0.03 in0.8 mm 0.03 in0.8 mm
12:10 AM 34.3°F1.3°C 33.0°F0.6°C 95% 2.3 mph WSW3.7 kmh WSW 2.3 mph3.7 kmh 30.29 in1025.7 mb - 0.02 in0.5 mm 0.05 in1.3 mm
12:20 AM 34.3°F1.3°C 33.0°F0.6°C 95% Calm Calm -- 30.29 in1025.7 mb - 0.02 in0.5 mm 0.07 in1.8 mm
12:30 AM 34.2°F1.2°C 33.0°F0.6°C 95% 1.2 mph SSE1.9 kmh SSE 1.2 mph1.9 kmh 30.28 in1025.4 mb - 0.02 in0.5 mm 0.09 in2.3 mm
12:40 AM 34.2°F1.2°C 33.0°F0.6°C 95% Calm Calm -- 30.27 in1025.1 mb - 0.01 in0.3 mm 0.10 in2.5 mm
12:50 AM 34.3°F1.3°C 33.1°F0.6°C 95% Calm Calm -- 30.27 in1025.1 mb - 0.02 in0.5 mm 0.01 in0.3 mm
01:00 AM 34.3°F1.3°C 33.1°F0.6°C 95% Calm Calm -- 30.26 in1024.7 mb - 0.02 in0.5 mm 0.02 in0.5 mm
01:10 AM 34.3°F1.3°C 33.1°F0.6°C 95% Calm Calm -- 30.26 in1024.7 mb - 0.02 in0.5 mm 0.02 in0.5 mm
01:20 AM 34.3°F1.3°C 33.1°F0.6°C 95% Calm Calm -- 30.25 in1024.4 mb - 0.02 in0.5 mm 0.02 in0.5 mm
01:30 AM 34.3°F1.3°C 33.1°F0.6°C 95% Calm Calm -- 30.24 in1024.0 mb - 0.03 in0.8 mm 0.03 in0.8 mm
01:40 AM 34.3°F1.3°C 33.0°F0.6°C 95% Calm Calm -- 30.24 in1024.0 mb - 0.03 in0.8 mm 0.03 in0.8 mm
01:50 AM 34.2°F1.2°C 33.0°F0.6°C 95% Calm Calm -- 30.24 in1024.0 mb - 0.02 in0.5 mm 0.03 in0.8 mm
02:00 AM 34.2°F1.2°C 33.0°F0.6°C 95% Calm Calm -- 30.23 in1023.7 mb - 0.01 in0.3 mm 0.03 in0.8 mm
02:10 AM 34.2°F1.2°C 33.0°F0.6°C 95% Calm Calm -- 30.23 in1023.7 mb - 0.02 in0.5 mm 0.04 in1.0 mm
02:20 AM 34.3°F1.3°C 33.0°F0.6°C 95% Calm Calm -- 30.22 in1023.4 mb - 0.03 in0.8 mm 0.05 in1.3 mm
02:30 AM 34.3°F1.3°C 33.1°F0.6°C 95% Calm Calm -- 30.21 in1023.0 mb - 0.03 in0.8 mm 0.06 in1.5 mm
02:40 AM 34.5°F1.4°C 33.2°F0.7°C 95% Calm Calm -- 30.21 in1023.0 mb - 0.04 in1.0 mm 0.07 in1.8 mm
02:50 AM 34.7°F1.5°C 33.4°F0.8°C 95% Calm Calm 1.2 mph1.9 kmh 30.21 in1023.0 mb - 0.04 in1.0 mm 0.07 in1.8 mm
03:00 AM 34.7°F1.5°C 33.4°F0.8°C 95% Calm Calm 2.3 mph3.7 kmh 30.20 in1022.7 mb - 0.05 in1.3 mm 0.08 in2.0 mm
03:10 AM 34.6°F1.4°C 33.3°F0.7°C 95% 2.3 mph WNW3.7 kmh WNW 2.3 mph3.7 kmh 30.20 in1022.7 mb - 0.04 in1.0 mm 0.08 in2.0 mm
03:20 AM 34.6°F1.4°C 33.3°F0.7°C 95% Calm Calm -- 30.20 in1022.7 mb - 0.04 in1.0 mm 0.09 in2.3 mm
03:30 AM 34.7°F1.5°C 33.4°F0.8°C 95% 2.3 mph N3.7 kmh N 2.3 mph3.7 kmh 30.20 in1022.7 mb - 0.05 in1.3 mm 0.11 in2.8 mm
03:40 AM 34.6°F1.4°C 33.3°F0.7°C 95% Calm Calm -- 30.19 in1022.4 mb - 0.05 in1.3 mm 0.12 in3.0 mm
03:50 AM 34.6°F1.4°C 33.3°F0.7°C 95% Calm Calm -- 30.18 in1022.0 mb - 0.05 in1.3 mm 0.12 in3.0 mm
04:00 AM 34.7°F1.5°C 33.4°F0.8°C 95% Calm Calm -- 30.18 in1022.0 mb - 0.06 in1.5 mm 0.13 in3.3 mm
04:10 AM 34.8°F1.6°C 33.5°F0.8°C 95% Calm Calm -- 30.17 in1021.7 mb - 0.05 in1.3 mm 0.13 in3.3 mm
04:20 AM 34.9°F1.6°C 33.7°F0.9°C 95% 1.2 mph NNW1.9 kmh NNW -- 30.17 in1021.7 mb - 0.04 in1.0 mm 0.13 in3.3 mm
04:30 AM 35.0°F1.7°C 33.7°F0.9°C 95% Calm Calm -- 30.17 in1021.7 mb - 0.03 in0.8 mm 0.14 in3.6 mm
04:40 AM 35.1°F1.7°C 33.9°F1.1°C 95% Calm Calm -- 30.17 in1021.7 mb - 0.03 in0.8 mm 0.14 in3.6 mm
04:50 AM 35.2°F1.8°C 33.9°F1.1°C 95% Calm Calm -- 30.16 in1021.3 mb - 0.02 in0.5 mm 0.14 in3.6 mm
05:00 AM 35.3°F1.8°C 34.1°F1.2°C 95% Calm Calm -- 30.15 in1021.0 mb - 0.01 in0.3 mm 0.14 in3.6 mm
05:10 AM 35.5°F1.9°C 34.2°F1.2°C 95% Calm Calm -- 30.15 in1021.0 mb - 0.01 in0.3 mm 0.14 in3.6 mm
05:20 AM 35.6°F2.0°C 34.3°F1.3°C 95% Calm Calm -- 30.15 in1021.0 mb - 0.01 in0.3 mm 0.14 in3.6 mm
05:30 AM 35.6°F2.0°C 34.3°F1.3°C 95% Calm Calm -- 30.15 in1021.0 mb - 0.00 in0.0 mm 0.14 in3.6 mm
05:40 AM 35.7°F2.1°C 34.4°F1.3°C 95% Calm Calm -- 30.15 in1021.0 mb - 0.00 in0.0 mm 0.14 in3.6 mm
05:50 AM 35.8°F2.1°C 34.6°F1.4°C 95% Calm Calm -- 30.16 in1021.3 mb - 0.00 in0.0 mm 0.14 in3.6 mm
06:00 AM 35.8°F2.1°C 34.6°F1.4°C 95% Calm Calm -- 30.16 in1021.3 mb - 0.00 in0.0 mm 0.14 in3.6 mm
06:10 AM 35.8°F2.1°C 34.6°F1.4°C 95% Calm Calm -- 30.16 in1021.3 mb - 0.00 in0.0 mm 0.14 in3.6 mm
06:20 AM 35.8°F2.1°C 34.6°F1.4°C 95% Calm Calm -- 30.16 in1021.3 mb - 0.00 in0.0 mm 0.14 in3.6 mm
06:30 AM 35.8°F2.1°C 34.6°F1.4°C 95% 1.2 mph W1.9 kmh W 1.2 mph1.9 kmh 30.17 in1021.7 mb - 0.00 in0.0 mm 0.14 in3.6 mm
06:40 AM 35.8°F2.1°C 34.6°F1.4°C 95% Calm Calm -- 30.17 in1021.7 mb - 0.00 in0.0 mm 0.14 in3.6 mm
06:50 AM 35.9°F2.2°C 34.6°F1.4°C 95% Calm Calm -- 30.16 in1021.3 mb - 0.00 in0.0 mm 0.14 in3.6 mm
07:00 AM 36.0°F2.2°C 34.7°F1.5°C 95% Calm Calm -- 30.17 in1021.7 mb - 0.00 in0.0 mm 0.14 in3.6 mm
07:10 AM 36.2°F2.3°C 34.9°F1.6°C 95% Calm Calm -- 30.17 in1021.7 mb - 0.00 in0.0 mm 0.14 in3.6 mm
07:20 AM 36.4°F2.4°C 35.1°F1.7°C 95% Calm Calm -- 30.17 in1021.7 mb - 0.00 in0.0 mm 0.14 in3.6 mm
07:30 AM 36.7°F2.6°C 35.4°F1.9°C 95% Calm Calm -- 30.17 in1021.7 mb - 0.00 in0.0 mm 0.14 in3.6 mm
07:40 AM 36.8°F2.7°C 35.5°F1.9°C 95% Calm Calm -- 30.17 in1021.7 mb - 0.00 in0.0 mm 0.14 in3.6 mm
07:50 AM 37.0°F2.8°C 35.7°F2.1°C 95% Calm Calm -- 30.17 in1021.7 mb - 0.00 in0.0 mm 0.14 in3.6 mm
08:00 AM 37.4°F3.0°C 36.1°F2.3°C 95% Calm Calm -- 30.17 in1021.7 mb - 0.00 in0.0 mm 0.14 in3.6 mm
08:10 AM 37.8°F3.2°C 36.4°F2.4°C 95% Calm Calm -- 30.17 in1021.7 mb - 0.00 in0.0 mm 0.14 in3.6 mm
08:20 AM 38.2°F3.4°C 37.1°F2.8°C 96% Calm Calm -- 30.17 in1021.7 mb - 0.00 in0.0 mm 0.14 in3.6 mm
08:30 AM 38.6°F3.7°C 37.6°F3.1°C 96% 2.3 mph WNW3.7 kmh WNW 2.3 mph3.7 kmh 30.18 in1022.0 mb - 0.00 in0.0 mm 0.14 in3.6 mm
08:40 AM 39.0°F3.9°C 37.9°F3.3°C 96% Calm Calm -- 30.18 in1022.0 mb - 0.00 in0.0 mm 0.14 in3.6 mm
08:50 AM 39.4°F4.1°C 38.3°F3.5°C 96% 1.2 mph NNW1.9 kmh NNW 2.3 mph3.7 kmh 30.18 in1022.0 mb - 0.00 in0.0 mm 0.14 in3.6 mm
09:00 AM 39.9°F4.4°C 38.8°F3.8°C 96% Calm Calm -- 30.18 in1022.0 mb - 0.00 in0.0 mm 0.14 in3.6 mm
09:10 AM 40.4°F4.7°C 39.4°F4.1°C 96% Calm Calm -- 30.18 in1022.0 mb - 0.00 in0.0 mm 0.14 in3.6 mm
09:20 AM 41.3°F5.2°C 40.2°F4.6°C 96% Calm Calm 2.3 mph3.7 kmh 30.18 in1022.0 mb - 0.00 in0.0 mm 0.14 in3.6 mm
09:30 AM 42.4°F5.8°C 41.3°F5.2°C 96% 1.2 mph W1.9 kmh W 1.2 mph1.9 kmh 30.17 in1021.7 mb - 0.00 in0.0 mm 0.14 in3.6 mm
09:40 AM 43.3°F6.3°C 42.2°F5.7°C 96% 2.3 mph ESE3.7 kmh ESE 1.2 mph1.9 kmh 30.17 in1021.7 mb - 0.00 in0.0 mm 0.14 in3.6 mm
09:50 AM 43.9°F6.6°C 42.8°F6.0°C 96% 1.2 mph SW1.9 kmh SW 2.3 mph3.7 kmh 30.17 in1021.7 mb - 0.00 in0.0 mm 0.14 in3.6 mm
10:00 AM 45.1°F7.3°C 44.3°F6.8°C 97% 1.2 mph SSW1.9 kmh SSW 2.3 mph3.7 kmh 30.17 in1021.7 mb - 0.00 in0.0 mm 0.14 in3.6 mm
10:10 AM 46.5°F8.1°C 45.7°F7.6°C 97% 2.3 mph SW3.7 kmh SW 2.3 mph3.7 kmh 30.17 in1021.7 mb - 0.00 in0.0 mm 0.14 in3.6 mm
10:20 AM 47.3°F8.5°C 46.5°F8.1°C 97% 3.5 mph WSW5.6 kmh WSW 6.9 mph11.1 kmh 30.18 in1022.0 mb - 0.00 in0.0 mm 0.14 in3.6 mm
10:30 AM 48.0°F8.9°C 47.2°F8.4°C 97% 4.6 mph WSW7.4 kmh WSW 5.8 mph9.3 kmh 30.17 in1021.7 mb - 0.00 in0.0 mm 0.14 in3.6 mm
10:40 AM 49.3°F9.6°C 48.2°F9.0°C 96% 3.5 mph WSW5.6 kmh WSW 3.5 mph5.6 kmh 30.18 in1022.0 mb - 0.00 in0.0 mm 0.14 in3.6 mm
10:50 AM 50.4°F10.2°C 48.1°F8.9°C 92% 3.5 mph NW5.6 kmh NW 8.1 mph13.0 kmh 30.18 in1022.0 mb - 0.00 in0.0 mm 0.14 in3.6 mm
11:00 AM 51.4°F10.8°C 47.6°F8.7°C 87% 6.9 mph WSW11.1 kmh WSW 6.9 mph11.1 kmh 30.18 in1022.0 mb - 0.00 in0.0 mm 0.14 in3.6 mm
11:10 AM 52.6°F11.4°C 49.4°F9.7°C 89% 2.3 mph NW3.7 kmh NW 3.5 mph5.6 kmh 30.17 in1021.7 mb - 0.00 in0.0 mm 0.14 in3.6 mm
11:20 AM 53.9°F12.2°C 48.2°F9.0°C 81% 1.2 mph SSW1.9 kmh SSW 1.2 mph1.9 kmh 30.17 in1021.7 mb - 0.00 in0.0 mm 0.14 in3.6 mm
11:30 AM 55.5°F13.1°C 49.4°F9.7°C 80% 3.5 mph NNW5.6 kmh NNW 6.9 mph11.1 kmh 30.17 in1021.7 mb - 0.00 in0.0 mm 0.14 in3.6 mm
11:40 AM 55.6°F13.1°C 48.9°F9.4°C 78% 4.6 mph W7.4 kmh W 6.9 mph11.1 kmh 30.18 in1022.0 mb - 0.00 in0.0 mm 0.14 in3.6 mm
11:50 AM 56.2°F13.4°C 48.0°F8.9°C 74% 2.3 mph WNW3.7 kmh WNW 6.9 mph11.1 kmh 30.17 in1021.7 mb - 0.00 in0.0 mm 0.14 in3.6 mm
12:00 PM 56.3°F13.5°C 48.8°F9.3°C 76% 3.5 mph NW5.6 kmh NW 5.8 mph9.3 kmh 30.17 in1021.7 mb - 0.00 in0.0 mm 0.14 in3.6 mm
12:10 PM 57.0°F13.9°C 48.1°F8.9°C 72% 2.3 mph SSE3.7 kmh SSE 2.3 mph3.7 kmh 30.17 in1021.7 mb - 0.00 in0.0 mm 0.14 in3.6 mm
12:20 PM 57.7°F14.3°C 48.7°F9.3°C 72% 3.5 mph SW5.6 kmh SW 2.3 mph3.7 kmh 30.16 in1021.3 mb - 0.00 in0.0 mm 0.14 in3.6 mm
12:30 PM 58.9°F14.9°C 49.1°F9.5°C 70% 4.6 mph N7.4 kmh N 5.8 mph9.3 kmh 30.16 in1021.3 mb - 0.00 in0.0 mm 0.14 in3.6 mm
12:40 PM 59.0°F15.0°C 48.8°F9.3°C 69% 3.5 mph ENE5.6 kmh ENE 3.5 mph5.6 kmh 30.16 in1021.3 mb - 0.00 in0.0 mm 0.14 in3.6 mm
12:50 PM 59.4°F15.2°C 49.3°F9.6°C 69% 8.1 mph SW13.0 kmh SW 11.5 mph18.5 kmh 30.15 in1021.0 mb - 0.00 in0.0 mm 0.14 in3.6 mm
01:00 PM 60.0°F15.6°C 50.2°F10.1°C 70% 4.6 mph W7.4 kmh W 8.1 mph13.0 kmh 30.16 in1021.3 mb - 0.00 in0.0 mm 0.14 in3.6 mm
01:10 PM 61.1°F16.2°C 48.8°F9.3°C 64% 3.5 mph NW5.6 kmh NW 8.1 mph13.0 kmh 30.15 in1021.0 mb - 0.00 in0.0 mm 0.14 in3.6 mm
01:20 PM 61.4°F16.3°C 49.1°F9.5°C 64% 5.8 mph WNW9.3 kmh WNW 5.8 mph9.3 kmh 30.15 in1021.0 mb - 0.00 in0.0 mm 0.14 in3.6 mm
01:30 PM 62.7°F17.1°C 49.9°F9.9°C 63% 3.5 mph W5.6 kmh W 5.8 mph9.3 kmh 30.15 in1021.0 mb - 0.00 in0.0 mm 0.14 in3.6 mm
01:40 PM 62.7°F17.1°C 48.6°F9.2°C 60% 5.8 mph WNW9.3 kmh WNW 9.2 mph14.8 kmh 30.15 in1021.0 mb - 0.00 in0.0 mm 0.14 in3.6 mm
01:50 PM 62.6°F17.0°C 48.5°F9.2°C 60% 4.6 mph WSW7.4 kmh WSW 8.1 mph13.0 kmh 30.15 in1021.0 mb - 0.00 in0.0 mm 0.14 in3.6 mm
02:00 PM 63.3°F17.4°C 48.7°F9.3°C 59% 4.6 mph WNW7.4 kmh WNW 6.9 mph11.1 kmh 30.15 in1021.0 mb - 0.00 in0.0 mm 0.14 in3.6 mm
02:10 PM 64.1°F17.8°C 48.5°F9.2°C 57% 3.5 mph WSW5.6 kmh WSW 5.8 mph9.3 kmh 30.15 in1021.0 mb - 0.00 in0.0 mm 0.14 in3.6 mm
02:20 PM 63.4°F17.4°C 48.3°F9.1°C 58% 6.9 mph SW11.1 kmh SW 9.2 mph14.8 kmh 30.15 in1021.0 mb - 0.00 in0.0 mm 0.14 in3.6 mm
02:30 PM 63.5°F17.5°C 48.9°F9.4°C 59% 5.8 mph WSW9.3 kmh WSW 8.1 mph13.0 kmh 30.15 in1021.0 mb - 0.00 in0.0 mm 0.14 in3.6 mm
02:40 PM 63.6°F17.6°C 48.5°F9.2°C 58% 5.8 mph W9.3 kmh W 11.5 mph18.5 kmh 30.15 in1021.0 mb - 0.00 in0.0 mm 0.14 in3.6 mm
02:50 PM 63.7°F17.6°C 46.2°F7.9°C 53% 12.7 mph W20.4 kmh W 17.3 mph27.8 kmh 30.15 in1021.0 mb - 0.00 in0.0 mm 0.14 in3.6 mm
03:00 PM 63.3°F17.4°C 46.3°F7.9°C 54% 8.1 mph WSW13.0 kmh WSW 9.2 mph14.8 kmh 30.16 in1021.3 mb - 0.00 in0.0 mm 0.14 in3.6 mm
03:10 PM 63.8°F17.7°C 46.8°F8.2°C 54% 6.9 mph WSW11.1 kmh WSW 8.1 mph13.0 kmh 30.15 in1021.0 mb - 0.00 in0.0 mm 0.14 in3.6 mm
03:20 PM 64.2°F17.9°C 48.2°F9.0°C 56% 8.1 mph WSW13.0 kmh WSW 16.1 mph25.9 kmh 30.15 in1021.0 mb - 0.00 in0.0 mm 0.14 in3.6 mm
03:30 PM 64.1°F17.8°C 47.6°F8.7°C 55% 6.9 mph WSW11.1 kmh WSW 13.8 mph22.2 kmh 30.16 in1021.3 mb - 0.00 in0.0 mm 0.14 in3.6 mm
03:40 PM 64.3°F17.9°C 46.8°F8.2°C 53% 3.5 mph WSW5.6 kmh WSW 6.9 mph11.1 kmh 30.15 in1021.0 mb - 0.00 in0.0 mm 0.14 in3.6 mm
03:50 PM 63.9°F17.7°C 47.4°F8.6°C 55% 8.1 mph W13.0 kmh W 11.5 mph18.5 kmh 30.16 in1021.3 mb - 0.00 in0.0 mm 0.14 in3.6 mm
04:00 PM 64.3°F17.9°C 46.8°F8.2°C 53% 4.6 mph SW7.4 kmh SW 10.4 mph16.7 kmh 30.16 in1021.3 mb - 0.00 in0.0 mm 0.14 in3.6 mm
04:10 PM 64.4°F18.0°C 46.4°F8.0°C 52% 4.6 mph WSW7.4 kmh WSW 10.4 mph16.7 kmh 30.16 in1021.3 mb - 0.00 in0.0 mm 0.14 in3.6 mm
04:20 PM 64.1°F17.8°C 46.1°F7.8°C 52% 8.1 mph W13.0 kmh W 8.1 mph13.0 kmh 30.17 in1021.7 mb - 0.00 in0.0 mm 0.14 in3.6 mm
04:30 PM 63.4°F17.4°C 44.9°F7.2°C 51% 6.9 mph WNW11.1 kmh WNW 11.5 mph18.5 kmh 30.16 in1021.3 mb - 0.00 in0.0 mm 0.14 in3.6 mm
04:40 PM 63.9°F17.7°C 46.4°F8.0°C 53% 4.6 mph NNW7.4 kmh NNW 10.4 mph16.7 kmh 30.16 in1021.3 mb - 0.00 in0.0 mm 0.14 in3.6 mm
04:50 PM 64.3°F17.9°C 45.2°F7.3°C 50% 6.9 mph W11.1 kmh W 15.0 mph24.1 kmh 30.16 in1021.3 mb - 0.00 in0.0 mm 0.14 in3.6 mm
05:00 PM 63.9°F17.7°C 45.4°F7.4°C 51% 5.8 mph WSW9.3 kmh WSW 8.1 mph13.0 kmh 30.17 in1021.7 mb - 0.00 in0.0 mm 0.14 in3.6 mm
05:10 PM 64.3°F17.9°C 44.7°F7.1°C 49% 6.9 mph SW11.1 kmh SW 9.2 mph14.8 kmh 30.17 in1021.7 mb - 0.00 in0.0 mm 0.14 in3.6 mm
05:20 PM 64.1°F17.8°C 45.1°F7.3°C 50% 4.6 mph WSW7.4 kmh WSW 11.5 mph18.5 kmh 30.17 in1021.7 mb - 0.00 in0.0 mm 0.14 in3.6 mm
05:30 PM 63.7°F17.6°C 45.2°F7.3°C 51% 5.8 mph NW9.3 kmh NW 5.8 mph9.3 kmh 30.17 in1021.7 mb - 0.00 in0.0 mm 0.14 in3.6 mm
05:40 PM 63.6°F17.6°C 45.1°F7.3°C 51% 3.5 mph N5.6 kmh N 5.8 mph9.3 kmh 30.17 in1021.7 mb - 0.00 in0.0 mm 0.14 in3.6 mm
05:50 PM 62.9°F17.2°C 44.5°F6.9°C 51% 5.8 mph WSW9.3 kmh WSW 13.8 mph22.2 kmh 30.18 in1022.0 mb - 0.00 in0.0 mm 0.14 in3.6 mm
06:00 PM 62.4°F16.9°C 43.5°F6.4°C 50% 5.8 mph WSW9.3 kmh WSW 6.9 mph11.1 kmh 30.17 in1021.7 mb - 0.00 in0.0 mm 0.14 in3.6 mm
06:10 PM 61.6°F16.4°C 43.3°F6.3°C 51% 8.1 mph WNW13.0 kmh WNW 11.5 mph18.5 kmh 30.18 in1022.0 mb - 0.00 in0.0 mm 0.14 in3.6 mm
06:20 PM 60.9°F16.1°C 42.6°F5.9°C 51% 5.8 mph WNW9.3 kmh WNW 5.8 mph9.3 kmh 30.18 in1022.0 mb - 0.00 in0.0 mm 0.14 in3.6 mm
06:30 PM 60.4°F15.8°C 43.2°F6.2°C 53% 6.9 mph WSW11.1 kmh WSW 8.1 mph13.0 kmh 30.18 in1022.0 mb - 0.00 in0.0 mm 0.14 in3.6 mm
06:40 PM 59.7°F15.4°C 43.0°F6.1°C 54% 2.3 mph SW3.7 kmh SW 10.4 mph16.7 kmh 30.19 in1022.4 mb - 0.00 in0.0 mm 0.14 in3.6 mm
06:50 PM 58.9°F14.9°C 42.8°F6.0°C 55% 2.3 mph W3.7 kmh W 2.3 mph3.7 kmh 30.19 in1022.4 mb - 0.00 in0.0 mm 0.14 in3.6 mm
07:00 PM 58.4°F14.7°C 42.7°F5.9°C 56% 3.5 mph WSW5.6 kmh WSW 9.2 mph14.8 kmh 30.18 in1022.0 mb - 0.00 in0.0 mm 0.14 in3.6 mm
07:10 PM 57.9°F14.4°C 41.8°F5.4°C 55% 3.5 mph WNW5.6 kmh WNW 2.3 mph3.7 kmh 30.18 in1022.0 mb - 0.00 in0.0 mm 0.14 in3.6 mm
07:20 PM 57.5°F14.2°C 41.9°F5.5°C 56% 3.5 mph W5.6 kmh W 15.0 mph24.1 kmh 30.18 in1022.0 mb - 0.00 in0.0 mm 0.14 in3.6 mm
07:30 PM 56.9°F13.8°C 41.8°F5.4°C 57% 2.3 mph SW3.7 kmh SW 2.3 mph3.7 kmh 30.19 in1022.4 mb - 0.00 in0.0 mm 0.14 in3.6 mm
07:40 PM 56.3°F13.5°C 42.1°F5.6°C 59% 4.6 mph WSW7.4 kmh WSW 6.9 mph11.1 kmh 30.19 in1022.4 mb - 0.00 in0.0 mm 0.14 in3.6 mm
07:50 PM 55.3°F12.9°C 42.5°F5.8°C 62% 1.2 mph WSW1.9 kmh WSW 3.5 mph5.6 kmh 30.19 in1022.4 mb - 0.00 in0.0 mm 0.14 in3.6 mm
08:00 PM 54.4°F12.4°C 42.1°F5.6°C 63% 3.5 mph W5.6 kmh W 6.9 mph11.1 kmh 30.19 in1022.4 mb - 0.00 in0.0 mm 0.14 in3.6 mm
08:10 PM 54.1°F12.3°C 42.1°F5.6°C 64% 2.3 mph NNE3.7 kmh NNE 2.3 mph3.7 kmh 30.20 in1022.7 mb - 0.00 in0.0 mm 0.14 in3.6 mm
08:20 PM 53.6°F12.0°C 41.7°F5.4°C 64% 2.3 mph SW3.7 kmh SW 2.3 mph3.7 kmh 30.20 in1022.7 mb - 0.00 in0.0 mm 0.14 in3.6 mm
08:30 PM 52.5°F11.4°C 41.9°F5.5°C 67% Calm Calm -- 30.21 in1023.0 mb - 0.00 in0.0 mm 0.14 in3.6 mm
08:40 PM 50.7°F10.4°C 41.3°F5.2°C 70% Calm Calm -- 30.21 in1023.0 mb - 0.00 in0.0 mm 0.14 in3.6 mm
08:50 PM 49.3°F9.6°C 41.3°F5.2°C 74% Calm Calm -- 30.21 in1023.0 mb - 0.00 in0.0 mm 0.14 in3.6 mm
09:00 PM 48.3°F9.1°C 41.1°F5.1°C 76% Calm Calm -- 30.21 in1023.0 mb - 0.00 in0.0 mm 0.14 in3.6 mm
09:10 PM 47.7°F8.7°C 41.6°F5.3°C 79% Calm Calm -- 30.21 in1023.0 mb - 0.00 in0.0 mm 0.14 in3.6 mm
09:20 PM 47.1°F8.4°C 41.6°F5.3°C 81% Calm Calm -- 30.21 in1023.0 mb - 0.00 in0.0 mm 0.14 in3.6 mm
09:30 PM 46.8°F8.2°C 42.0°F5.6°C 83% Calm Calm -- 30.21 in1023.0 mb - 0.00 in0.0 mm 0.14 in3.6 mm
09:40 PM 46.0°F7.8°C 41.7°F5.4°C 85% Calm Calm -- 30.21 in1023.0 mb - 0.00 in0.0 mm 0.14 in3.6 mm
09:50 PM 45.9°F7.7°C 41.6°F5.3°C 85% Calm Calm -- 30.21 in1023.0 mb - 0.00 in0.0 mm 0.14 in3.6 mm
10:00 PM 45.2°F7.3°C 41.5°F5.3°C 87% Calm Calm -- 30.21 in1023.0 mb - 0.00 in0.0 mm 0.14 in3.6 mm
10:10 PM 45.4°F7.4°C 41.8°F5.4°C 87% Calm Calm -- 30.21 in1023.0 mb - 0.00 in0.0 mm 0.14 in3.6 mm
10:20 PM 44.9°F7.2°C 41.3°F5.2°C 87% Calm Calm -- 30.21 in1023.0 mb - 0.00 in0.0 mm 0.14 in3.6 mm
10:30 PM 44.0°F6.7°C 41.3°F5.2°C 90% Calm Calm -- 30.21 in1023.0 mb - 0.00 in0.0 mm 0.14 in3.6 mm
10:40 PM 44.2°F6.8°C 41.5°F5.3°C 90% Calm Calm -- 30.21 in1023.0 mb - 0.00 in0.0 mm 0.14 in3.6 mm
10:50 PM 43.7°F6.5°C 41.3°F5.2°C 91% Calm Calm -- 30.21 in1023.0 mb - 0.00 in0.0 mm 0.14 in3.6 mm
11:00 PM 43.1°F6.2°C 41.2°F5.1°C 93% Calm Calm -- 30.21 in1023.0 mb - 0.00 in0.0 mm 0.14 in3.6 mm
11:10 PM 42.8°F6.0°C 40.9°F4.9°C 93% Calm Calm -- 30.22 in1023.4 mb - 0.00 in0.0 mm 0.14 in3.6 mm
11:20 PM 42.2°F5.7°C 40.8°F4.9°C 95% Calm Calm -- 30.22 in1023.4 mb - 0.00 in0.0 mm 0.14 in3.6 mm
11:30 PM 41.8°F5.4°C 40.8°F4.9°C 96% Calm Calm -- 30.21 in1023.0 mb - 0.00 in0.0 mm 0.14 in3.6 mm
11:40 PM 41.1°F5.1°C 40.0°F4.4°C 96% Calm Calm -- 30.21 in1023.0 mb - 0.00 in0.0 mm 0.14 in3.6 mm
11:50 PM 41.1°F5.1°C 40.1°F4.5°C 96% Calm Calm -- 30.21 in1023.0 mb - 0.00 in0.0 mm 0.14 in3.6 mm